createdAt,value
2022-10-26T00:00:00.337Z,76.69
2022-10-26T00:01:09.150Z,76.71
2022-10-26T00:02:05.975Z,76.79
2022-10-26T00:03:02.627Z,76.14
2022-10-26T00:03:59.207Z,76.04
2022-10-26T00:04:55.748Z,76.36
2022-10-26T00:05:52.345Z,76.55
2022-10-26T00:06:49.002Z,75.96
2022-10-26T00:07:45.585Z,75.33
2022-10-26T00:08:42.792Z,75.67
2022-10-26T00:09:39.339Z,75.52
2022-10-26T00:10:40.251Z,75.01
2022-10-26T00:11:36.885Z,74.93
2022-10-26T00:12:33.435Z,74.87
2022-10-26T00:13:30.238Z,74.18
2022-10-26T00:14:27.203Z,75.62
2022-10-26T00:15:23.774Z,76.78
2022-10-26T00:16:24.478Z,76.92
2022-10-26T00:17:21.133Z,76.64
2022-10-26T00:18:17.679Z,77.37
2022-10-26T00:19:14.356Z,77.77
2022-10-26T00:20:11.382Z,78.08
2022-10-26T00:21:09.788Z,78.23
2022-10-26T00:22:06.391Z,77.81
2022-10-26T00:23:02.976Z,77.67
2022-10-26T00:24:00.204Z,77.51
2022-10-26T00:24:56.772Z,76.76
2022-10-26T00:25:57.068Z,76.79
2022-10-26T00:26:53.638Z,77.41
2022-10-26T00:27:50.372Z,78.37
2022-10-26T00:28:47.340Z,78.15
2022-10-26T00:29:44.068Z,77.57
2022-10-26T00:30:40.742Z,77.61
2022-10-26T00:31:37.346Z,77.80
2022-10-26T00:32:34.331Z,77.24
2022-10-26T00:33:32.462Z,77.54
2022-10-26T00:34:29.031Z,77.27
2022-10-26T00:35:44.505Z,76.15
2022-10-26T00:36:42.009Z,77.05
2022-10-26T00:37:38.590Z,77.74
2022-10-26T00:38:35.143Z,77.46
2022-10-26T00:39:31.864Z,77.75
2022-10-26T00:40:29.387Z,78.49
2022-10-26T00:41:29.380Z,78.21
2022-10-26T00:42:26.142Z,78.12
2022-10-26T00:43:22.753Z,77.75
2022-10-26T00:44:47.471Z,76.74
2022-10-26T00:45:45.403Z,77.47
2022-10-26T00:46:41.956Z,78.04
2022-10-26T00:47:45.220Z,78.26
2022-10-26T00:48:45.956Z,78.23
2022-10-26T00:49:46.676Z,78.10
2022-10-26T00:50:46.692Z,78.04
2022-10-26T00:51:48.732Z,78.61
2022-10-26T00:52:45.415Z,78.57
2022-10-26T00:53:42.668Z,78.86
2022-10-26T00:54:39.633Z,78.49
2022-10-26T00:55:40.425Z,78.53
2022-10-26T00:56:37.342Z,78.73
2022-10-26T00:58:32.670Z,79.15
2022-10-26T00:59:29.382Z,79.56
2022-10-26T01:00:26.025Z,79.87
2022-10-26T01:01:22.695Z,80.54
2022-10-26T01:02:19.423Z,80.46
2022-10-26T01:03:17.106Z,79.82
2022-10-26T01:04:14.781Z,79.76
2022-10-26T01:05:12.460Z,80.15
2022-10-26T01:06:13.603Z,80.43
2022-10-26T01:07:10.704Z,80.51
2022-10-26T01:08:09.358Z,79.09
2022-10-26T01:09:06.270Z,78.57
2022-10-26T01:10:03.014Z,78.96
2022-10-26T01:11:00.437Z,79.30
2022-10-26T01:11:56.996Z,79.70
2022-10-26T01:12:56.768Z,79.97
2022-10-26T01:13:54.191Z,79.91
2022-10-26T01:14:50.880Z,80.27
2022-10-26T01:16:10.658Z,80.12
2022-10-26T01:17:10.339Z,80.94
2022-10-26T01:18:17.602Z,81.30
2022-10-26T01:19:35.611Z,81.46
2022-10-26T01:21:09.562Z,81.51
2022-10-26T01:22:19.691Z,81.01
2022-10-26T01:23:48.763Z,80.83
2022-10-26T01:24:51.113Z,80.46
2022-10-26T01:26:17.493Z,80.90
2022-10-26T01:27:48.795Z,82.07
2022-10-26T01:29:13.296Z,82.26
2022-10-26T01:30:31.172Z,82.46
2022-10-26T01:31:34.343Z,82.42
2022-10-26T01:32:42.975Z,81.57
2022-10-26T01:33:52.061Z,81.66
2022-10-26T01:35:14.839Z,81.34
2022-10-26T01:36:26.266Z,81.79
2022-10-26T01:37:29.415Z,81.57
2022-10-26T01:38:35.740Z,81.35
2022-10-26T01:39:46.092Z,80.22
2022-10-26T01:40:54.694Z,80.53
2022-10-26T01:41:53.211Z,80.98
2022-10-26T01:42:53.802Z,81.39
2022-10-26T01:43:56.701Z,81.88
2022-10-26T01:44:59.022Z,81.81
2022-10-26T01:45:57.274Z,82.33
2022-10-26T01:46:56.854Z,82.70
2022-10-26T01:47:56.503Z,82.51
2022-10-26T01:48:59.069Z,82.34
2022-10-26T01:49:58.531Z,82.15
2022-10-26T01:50:57.764Z,83.02
2022-10-26T01:51:54.757Z,83.16
2022-10-26T01:52:51.462Z,82.48
2022-10-26T01:53:48.073Z,82.16
2022-10-26T01:54:44.746Z,81.43
2022-10-26T01:55:51.556Z,81.60
2022-10-26T01:56:53.785Z,81.99
2022-10-26T01:57:51.964Z,82.24
2022-10-26T01:59:07.272Z,82.46
2022-10-26T02:00:12.002Z,82.76
2022-10-26T02:01:29.539Z,82.57
2022-10-26T02:02:34.561Z,82.90
2022-10-26T02:03:54.367Z,82.38
2022-10-26T02:05:00.329Z,82.58
2022-10-26T02:06:35.937Z,81.99
2022-10-26T02:07:41.750Z,82.27
2022-10-26T02:08:54.248Z,81.42
2022-10-26T02:10:13.808Z,81.97
2022-10-26T02:11:34.911Z,81.74
2022-10-26T02:12:50.042Z,82.35
2022-10-26T02:13:56.417Z,82.39
2022-10-26T02:15:32.203Z,82.68
2022-10-26T02:16:48.664Z,82.47
2022-10-26T02:17:50.961Z,81.87
2022-10-26T02:18:50.387Z,82.03
2022-10-26T02:19:58.557Z,82.63
2022-10-26T02:21:17.855Z,82.57
2022-10-26T02:22:32.181Z,82.52
2022-10-26T02:23:32.763Z,82.48
2022-10-26T02:24:31.876Z,82.04
2022-10-26T02:25:32.514Z,81.22
2022-10-26T02:26:32.844Z,80.62
2022-10-26T02:27:35.116Z,80.74
2022-10-26T02:28:37.728Z,81.86
2022-10-26T02:29:35.546Z,82.62
2022-10-26T02:30:35.178Z,81.82
2022-10-26T02:31:33.938Z,81.96
2022-10-26T02:32:35.215Z,81.26
2022-10-26T02:33:36.885Z,81.23
2022-10-26T02:34:37.595Z,80.16
2022-10-26T02:35:36.850Z,80.43
2022-10-26T02:36:36.604Z,80.86
2022-10-26T02:37:35.746Z,81.98
2022-10-26T02:38:34.514Z,81.89
2022-10-26T02:39:34.686Z,83.20
2022-10-26T02:40:33.598Z,83.10
2022-10-26T02:41:31.050Z,82.46
2022-10-26T02:42:28.337Z,82.45
2022-10-26T02:43:26.720Z,83.17
2022-10-26T02:44:30.171Z,83.32
2022-10-26T02:45:33.434Z,84.34
2022-10-26T02:46:30.196Z,84.27
2022-10-26T02:47:27.629Z,84.13
2022-10-26T02:48:24.542Z,83.62
2022-10-26T02:49:21.762Z,84.22
2022-10-26T02:50:22.527Z,83.62
2022-10-26T02:51:40.117Z,84.48
2022-10-26T02:52:51.585Z,84.08
2022-10-26T02:53:54.891Z,84.28
2022-10-26T02:54:57.761Z,84.26
2022-10-26T02:55:54.489Z,84.84
2022-10-26T02:56:59.924Z,85.13
2022-10-26T02:58:02.829Z,84.83
2022-10-26T02:59:04.561Z,84.62
2022-10-26T03:00:03.644Z,84.67
2022-10-26T03:01:00.575Z,84.35
2022-10-26T03:01:58.287Z,84.43
2022-10-26T03:02:58.086Z,84.54
2022-10-26T03:03:58.235Z,84.62
2022-10-26T03:04:56.349Z,85.02
2022-10-26T03:05:52.921Z,84.63
2022-10-26T03:06:54.408Z,84.36
2022-10-26T03:07:51.048Z,84.78
2022-10-26T03:08:47.653Z,84.01
2022-10-26T03:09:44.263Z,83.95
2022-10-26T03:10:43.215Z,84.62
2022-10-26T03:11:39.770Z,84.66
2022-10-26T03:12:36.351Z,83.98
2022-10-26T03:13:32.933Z,83.47
2022-10-26T03:14:29.464Z,84.21
2022-10-26T03:15:26.120Z,84.26
2022-10-26T03:16:22.712Z,84.34
2022-10-26T03:17:19.274Z,84.29
2022-10-26T03:18:15.879Z,84.08
2022-10-26T03:19:12.524Z,84.34
2022-10-26T03:20:09.804Z,84.47
2022-10-26T03:21:06.451Z,84.89
2022-10-26T03:22:03.026Z,85.05
2022-10-26T03:22:59.710Z,84.99
2022-10-26T03:23:56.355Z,85.30
2022-10-26T03:24:52.911Z,85.17
2022-10-26T03:25:49.460Z,84.73
2022-10-26T03:26:46.058Z,84.83
2022-10-26T03:27:43.237Z,84.30
2022-10-26T03:28:39.788Z,84.46
2022-10-26T03:29:36.355Z,84.62
2022-10-26T03:30:33.387Z,84.64
2022-10-26T03:31:29.952Z,84.41
2022-10-26T03:32:26.612Z,84.50
2022-10-26T03:33:25.680Z,84.17
2022-10-26T03:34:24.477Z,84.04
2022-10-26T03:35:21.673Z,84.63
2022-10-26T03:36:18.369Z,85.03
2022-10-26T03:37:14.960Z,84.37
2022-10-26T03:38:15.264Z,84.79
2022-10-26T03:39:12.784Z,84.75
2022-10-26T03:40:10.146Z,84.92
2022-10-26T03:41:06.839Z,84.47
2022-10-26T03:42:03.481Z,82.98
2022-10-26T03:43:00.114Z,81.74
2022-10-26T03:43:56.766Z,80.24
2022-10-26T03:44:53.359Z,79.39
2022-10-26T03:45:49.941Z,79.45
2022-10-26T03:46:46.527Z,81.27
2022-10-26T03:47:45.195Z,82.42
2022-10-26T03:48:41.847Z,82.16
2022-10-26T03:49:38.426Z,82.72
2022-10-26T03:50:35.003Z,83.38
2022-10-26T03:51:32.091Z,84.13
2022-10-26T03:52:28.678Z,84.23
2022-10-26T03:53:26.363Z,84.50
2022-10-26T03:54:26.177Z,85.32
2022-10-26T03:55:22.743Z,85.25
2022-10-26T03:56:19.293Z,85.31
2022-10-26T03:57:15.866Z,84.52
2022-10-26T03:58:12.527Z,84.69
2022-10-26T03:59:09.205Z,84.69
2022-10-26T04:00:06.387Z,84.58
2022-10-26T04:01:03.035Z,85.08
2022-10-26T04:01:59.752Z,85.13
2022-10-26T04:02:58.427Z,84.98
2022-10-26T04:03:54.988Z,85.37
2022-10-26T04:04:51.609Z,85.38
2022-10-26T04:05:48.166Z,84.87
2022-10-26T04:06:47.703Z,83.90
2022-10-26T04:07:44.284Z,84.29
2022-10-26T04:08:40.843Z,84.83
2022-10-26T04:09:37.383Z,85.57
2022-10-26T04:10:34.154Z,86.19
2022-10-26T04:11:30.799Z,86.63
2022-10-26T04:12:27.531Z,86.17
2022-10-26T04:13:24.384Z,86.66
2022-10-26T04:14:20.974Z,86.58
2022-10-26T04:15:20.093Z,87.08
2022-10-26T04:16:16.638Z,87.03
2022-10-26T04:17:13.243Z,87.13
2022-10-26T04:18:13.025Z,87.05
2022-10-26T04:19:09.646Z,87.08
2022-10-26T04:20:06.880Z,86.99
2022-10-26T04:21:03.639Z,87.18
2022-10-26T04:22:00.172Z,87.00
2022-10-26T04:23:00.977Z,86.83
2022-10-26T04:23:57.511Z,86.66
2022-10-26T04:24:54.067Z,86.13
2022-10-26T04:25:50.758Z,85.63
2022-10-26T04:26:47.311Z,85.93
2022-10-26T04:27:43.879Z,85.76
2022-10-26T04:28:40.442Z,86.30
2022-10-26T04:29:36.981Z,86.40
2022-10-26T04:30:34.855Z,86.10
2022-10-26T04:31:31.570Z,86.16
2022-10-26T04:32:28.211Z,86.43
2022-10-26T04:33:24.854Z,86.60
2022-10-26T04:34:21.376Z,86.73
2022-10-26T04:35:18.011Z,85.89
2022-10-26T04:36:14.643Z,86.06
2022-10-26T04:37:11.297Z,85.58
2022-10-26T04:38:07.997Z,84.29
2022-10-26T04:39:04.554Z,83.75
2022-10-26T04:40:01.166Z,83.58
2022-10-26T04:40:57.735Z,83.04
2022-10-26T04:41:54.875Z,83.24
2022-10-26T04:42:51.853Z,84.29
2022-10-26T04:43:48.791Z,85.60
2022-10-26T04:44:45.323Z,86.29
2022-10-26T04:45:41.876Z,86.25
2022-10-26T04:46:38.498Z,86.99
2022-10-26T04:47:35.099Z,86.21
2022-10-26T04:48:31.761Z,85.02
2022-10-26T04:49:28.399Z,85.65
2022-10-26T04:50:27.581Z,85.90
2022-10-26T04:51:25.035Z,85.26
2022-10-26T04:52:21.570Z,84.03
2022-10-26T04:53:18.120Z,83.60
2022-10-26T04:54:15.085Z,83.73
2022-10-26T04:55:11.636Z,83.94
2022-10-26T04:56:08.922Z,84.34
2022-10-26T04:57:05.531Z,85.06
2022-10-26T04:58:02.588Z,85.51
2022-10-26T04:58:59.251Z,85.72
2022-10-26T04:59:55.803Z,85.42
2022-10-26T05:00:52.363Z,86.11
2022-10-26T05:01:49.085Z,86.92
2022-10-26T05:02:45.772Z,86.76
2022-10-26T05:03:42.333Z,87.22
2022-10-26T05:04:38.904Z,87.65
2022-10-26T05:05:36.725Z,87.80
2022-10-26T05:06:33.279Z,88.02
2022-10-26T05:07:29.827Z,88.27
2022-10-26T05:08:29.219Z,87.75
2022-10-26T05:09:25.817Z,87.87
2022-10-26T05:10:22.827Z,87.30
2022-10-26T05:11:19.559Z,86.34
2022-10-26T05:12:16.158Z,86.45
2022-10-26T05:13:12.708Z,87.14
2022-10-26T05:14:09.851Z,87.60
2022-10-26T05:15:08.579Z,88.08
2022-10-26T05:16:05.780Z,87.74
2022-10-26T05:17:02.396Z,87.58
2022-10-26T05:18:02.982Z,86.49
2022-10-26T05:18:59.618Z,85.78
2022-10-26T05:19:58.129Z,86.48
2022-10-26T05:20:55.592Z,87.00
2022-10-26T05:21:53.479Z,87.28
2022-10-26T05:22:53.374Z,87.03
2022-10-26T05:23:55.370Z,87.23
2022-10-26T05:24:52.149Z,86.53
2022-10-26T05:25:49.359Z,85.96
2022-10-26T05:26:46.291Z,85.66
2022-10-26T05:27:42.831Z,85.14
2022-10-26T05:28:39.376Z,84.55
2022-10-26T05:29:35.906Z,84.33
2022-10-26T05:30:32.792Z,84.25
2022-10-26T05:31:29.441Z,84.17
2022-10-26T05:32:26.034Z,84.06
2022-10-26T05:33:23.807Z,83.72
2022-10-26T05:34:20.392Z,83.63
2022-10-26T05:35:16.937Z,82.50
2022-10-26T05:36:13.529Z,81.77
2022-10-26T05:37:10.092Z,81.60
2022-10-26T05:38:08.655Z,80.93
2022-10-26T05:39:05.346Z,80.19
2022-10-26T05:40:01.946Z,80.10
2022-10-26T05:40:59.354Z,80.21
2022-10-26T05:41:55.932Z,81.00
2022-10-26T05:42:53.060Z,81.13
2022-10-26T05:43:49.899Z,81.01
2022-10-26T05:44:46.889Z,81.25
2022-10-26T05:45:43.644Z,81.14
2022-10-26T05:46:40.368Z,80.92
2022-10-26T05:47:45.619Z,80.54
2022-10-26T05:48:42.290Z,79.89
2022-10-26T05:49:38.825Z,79.33
2022-10-26T05:50:35.577Z,79.27
2022-10-26T05:51:37.225Z,79.37
2022-10-26T05:52:47.199Z,79.60
2022-10-26T05:53:43.745Z,79.14
2022-10-26T05:54:40.414Z,78.84
2022-10-26T05:55:37.740Z,78.79
2022-10-26T05:56:43.907Z,78.51
2022-10-26T05:57:41.374Z,79.48
2022-10-26T05:58:39.280Z,80.42
2022-10-26T05:59:36.086Z,79.91
2022-10-26T06:00:33.069Z,79.33
2022-10-26T06:02:00.616Z,79.00
2022-10-26T06:03:16.364Z,78.26
2022-10-26T06:04:27.967Z,78.11
2022-10-26T06:05:27.796Z,78.10
2022-10-26T06:06:24.739Z,77.72
2022-10-26T06:07:21.562Z,77.21
2022-10-26T06:08:18.716Z,77.33
2022-10-26T06:09:15.995Z,76.64
2022-10-26T06:10:13.200Z,76.82
2022-10-26T06:11:10.528Z,76.75
2022-10-26T06:12:07.898Z,75.90
2022-10-26T06:13:04.758Z,75.87
2022-10-26T06:14:01.637Z,75.86
2022-10-26T06:14:58.782Z,76.24
2022-10-26T06:16:23.096Z,75.58
2022-10-26T06:17:42.008Z,74.75
2022-10-26T06:19:03.307Z,74.91
2022-10-26T06:20:03.267Z,74.92
2022-10-26T06:21:23.588Z,75.42
2022-10-26T06:22:39.468Z,75.41
2022-10-26T06:23:53.554Z,74.63
2022-10-26T06:24:53.238Z,74.57
2022-10-26T06:25:58.936Z,74.36
2022-10-26T06:26:55.484Z,74.16
2022-10-26T06:28:14.468Z,74.12
2022-10-26T06:29:32.339Z,74.25
2022-10-26T06:30:29.023Z,74.03
2022-10-26T06:31:25.623Z,73.52
2022-10-26T06:32:25.029Z,73.62
2022-10-26T06:33:29.545Z,73.75
2022-10-26T06:34:33.350Z,73.04
2022-10-26T06:35:43.458Z,72.69
2022-10-26T06:36:41.647Z,72.81
2022-10-26T06:37:39.750Z,73.30
2022-10-26T06:38:38.248Z,72.56
2022-10-26T06:39:39.416Z,72.84
2022-10-26T06:40:39.811Z,71.85
2022-10-26T06:41:37.166Z,72.35
2022-10-26T06:42:33.998Z,72.20
2022-10-26T06:43:34.699Z,72.61
2022-10-26T06:44:31.562Z,72.54
2022-10-26T06:45:28.380Z,72.40
2022-10-26T06:46:31.832Z,72.46
2022-10-26T06:47:42.440Z,71.97
2022-10-26T06:48:56.380Z,71.86
2022-10-26T06:50:07.244Z,71.71
2022-10-26T06:51:04.076Z,70.85
2022-10-26T06:52:16.975Z,70.96
2022-10-26T06:53:22.739Z,70.19
2022-10-26T06:54:23.765Z,70.53
2022-10-26T06:55:21.973Z,70.62
2022-10-26T06:56:19.277Z,69.74
2022-10-26T06:57:17.800Z,69.63
2022-10-26T06:58:18.271Z,69.69
2022-10-26T06:59:29.914Z,69.65
2022-10-26T07:00:27.063Z,69.15
2022-10-26T07:01:23.862Z,69.46
2022-10-26T07:02:20.996Z,69.16
2022-10-26T07:03:17.667Z,69.50
2022-10-26T07:04:14.271Z,69.44
2022-10-26T07:05:12.988Z,69.21
2022-10-26T07:06:10.037Z,69.12
2022-10-26T07:07:07.202Z,68.58
2022-10-26T07:08:04.991Z,68.49
2022-10-26T07:09:01.567Z,68.65
2022-10-26T07:09:58.163Z,68.93
2022-10-26T07:10:54.742Z,67.81
2022-10-26T07:11:51.311Z,68.25
2022-10-26T07:12:47.949Z,68.34
2022-10-26T07:13:44.495Z,68.42
2022-10-26T07:14:41.314Z,68.68
2022-10-26T07:15:39.135Z,68.73
2022-10-26T07:16:35.733Z,68.33
2022-10-26T07:17:32.326Z,67.94
2022-10-26T07:18:28.950Z,68.26
2022-10-26T07:19:25.645Z,68.43
2022-10-26T07:20:22.368Z,68.58
2022-10-26T07:21:18.975Z,68.49
2022-10-26T07:22:15.579Z,67.89
2022-10-26T07:23:12.270Z,68.47
2022-10-26T07:24:09.184Z,67.47
2022-10-26T07:25:08.056Z,66.84
2022-10-26T07:26:04.801Z,67.64
2022-10-26T07:27:01.523Z,68.15
2022-10-26T07:27:59.359Z,68.29
2022-10-26T07:28:56.005Z,67.38
2022-10-26T07:29:52.573Z,66.95
2022-10-26T07:30:53.932Z,67.09
2022-10-26T07:32:51.261Z,66.86
2022-10-26T07:33:48.139Z,67.11
2022-10-26T07:34:44.711Z,66.32
2022-10-26T07:35:41.390Z,65.64
2022-10-26T07:36:37.961Z,66.49
2022-10-26T07:37:34.525Z,65.60
2022-10-26T07:38:31.114Z,65.66
2022-10-26T07:39:27.831Z,64.90
2022-10-26T07:40:24.686Z,64.81
2022-10-26T07:41:21.280Z,64.72
2022-10-26T07:42:17.904Z,64.35
2022-10-26T07:43:14.484Z,64.14
2022-10-26T07:44:11.039Z,63.50
2022-10-26T07:45:08.059Z,63.49
2022-10-26T07:46:04.772Z,63.45
2022-10-26T07:47:01.548Z,63.08
2022-10-26T07:47:58.273Z,63.80
2022-10-26T07:48:55.042Z,62.12
2022-10-26T07:49:51.599Z,61.60
2022-10-26T07:50:48.295Z,61.84
2022-10-26T07:51:45.060Z,62.06
2022-10-26T07:52:41.956Z,61.74
2022-10-26T07:53:38.671Z,61.85
2022-10-26T07:54:35.267Z,61.20
2022-10-26T07:55:31.862Z,60.62
2022-10-26T07:56:28.940Z,60.23
2022-10-26T07:57:25.477Z,60.87
2022-10-26T07:58:25.792Z,61.52
2022-10-26T07:59:22.339Z,61.45
2022-10-26T08:00:19.000Z,60.58
2022-10-26T08:01:16.354Z,60.38
2022-10-26T08:02:13.099Z,60.14
2022-10-26T08:03:09.665Z,60.70
2022-10-26T08:04:06.235Z,61.60
2022-10-26T08:05:03.620Z,61.95
2022-10-26T08:06:00.767Z,62.30
2022-10-26T08:06:57.782Z,62.46
2022-10-26T08:07:54.331Z,62.11
2022-10-26T08:08:51.853Z,61.66
2022-10-26T08:09:48.405Z,62.04
2022-10-26T08:10:46.124Z,61.09
2022-10-26T08:11:42.672Z,61.87
2022-10-26T08:12:39.688Z,61.92
2022-10-26T08:13:36.255Z,61.24
2022-10-26T08:14:32.879Z,61.14
2022-10-26T08:15:29.438Z,61.35
2022-10-26T08:16:26.113Z,60.94
2022-10-26T08:17:23.072Z,60.89
2022-10-26T08:18:19.620Z,60.27
2022-10-26T08:19:16.259Z,60.09
2022-10-26T08:20:13.195Z,59.59
2022-10-26T08:21:21.666Z,59.42
2022-10-26T08:22:23.001Z,59.82
2022-10-26T08:23:19.883Z,59.01
2022-10-26T08:24:16.464Z,59.52
2022-10-26T08:25:16.278Z,58.36
2022-10-26T08:26:15.412Z,58.78
2022-10-26T08:27:12.568Z,58.87
2022-10-26T08:28:09.167Z,59.61
2022-10-26T08:29:05.852Z,59.69
2022-10-26T08:30:02.388Z,59.14
2022-10-26T08:30:58.971Z,58.78
2022-10-26T08:31:57.021Z,58.27
2022-10-26T08:33:04.767Z,58.51
2022-10-26T08:34:01.917Z,58.12
2022-10-26T08:34:58.505Z,58.45
2022-10-26T08:35:57.825Z,57.69
2022-10-26T08:36:54.368Z,57.74
2022-10-26T08:37:52.566Z,57.71
2022-10-26T08:38:49.252Z,58.15
2022-10-26T08:39:49.097Z,57.83
2022-10-26T08:40:48.664Z,57.66
2022-10-26T08:41:47.975Z,57.50
2022-10-26T08:42:48.953Z,56.33
2022-10-26T08:43:52.322Z,56.58
2022-10-26T08:44:58.496Z,57.04
2022-10-26T08:46:04.552Z,57.72
2022-10-26T08:47:21.382Z,57.14
2022-10-26T08:48:24.358Z,57.30
2022-10-26T08:49:31.064Z,57.06
2022-10-26T08:50:52.047Z,56.81
2022-10-26T08:51:52.124Z,56.91
2022-10-26T08:53:17.294Z,56.77
2022-10-26T08:54:26.651Z,56.54
2022-10-26T08:55:29.049Z,56.65
2022-10-26T08:56:29.119Z,55.77
2022-10-26T08:57:37.142Z,56.34
2022-10-26T08:58:43.949Z,56.19
2022-10-26T08:59:56.567Z,56.89
2022-10-26T09:00:53.604Z,55.88
2022-10-26T09:01:50.270Z,56.78
2022-10-26T09:02:51.564Z,57.57
2022-10-26T09:03:48.205Z,57.15
2022-10-26T09:04:45.348Z,57.16
2022-10-26T09:05:55.835Z,57.14
2022-10-26T09:07:13.699Z,56.58
2022-10-26T09:08:35.530Z,57.15
2022-10-26T09:09:50.639Z,56.46
2022-10-26T09:10:59.669Z,55.88
2022-10-26T09:12:10.371Z,55.60
2022-10-26T09:13:24.707Z,54.53
2022-10-26T09:14:43.582Z,54.38
2022-10-26T09:15:57.144Z,55.81
2022-10-26T09:16:56.431Z,55.98
2022-10-26T09:18:03.956Z,54.52
2022-10-26T09:19:32.554Z,54.08
2022-10-26T09:20:47.768Z,53.70
2022-10-26T09:22:19.631Z,52.86
2022-10-26T09:23:24.665Z,51.13
2022-10-26T09:24:34.197Z,50.87
2022-10-26T09:25:38.720Z,50.68
2022-10-26T09:27:00.123Z,50.54
2022-10-26T09:28:02.158Z,50.46
2022-10-26T09:29:04.680Z,51.43
2022-10-26T09:30:06.885Z,51.06
2022-10-26T09:31:05.025Z,49.43
2022-10-26T09:32:03.918Z,47.31
2022-10-26T09:33:05.824Z,47.69
2022-10-26T09:34:07.000Z,49.61
2022-10-26T09:35:10.672Z,49.54
2022-10-26T09:36:15.975Z,49.00
2022-10-26T09:37:32.197Z,48.26
2022-10-26T09:38:31.541Z,48.57
2022-10-26T09:39:39.599Z,47.89
2022-10-26T09:40:57.079Z,47.60
2022-10-26T09:41:58.917Z,47.01
2022-10-26T09:43:05.744Z,47.59
2022-10-26T09:44:11.783Z,47.27
2022-10-26T09:45:32.771Z,47.35
2022-10-26T09:46:33.781Z,46.93
2022-10-26T09:47:39.349Z,46.26
2022-10-26T09:48:43.008Z,45.77
2022-10-26T09:49:51.897Z,44.75
2022-10-26T09:50:51.392Z,45.32
2022-10-26T09:51:48.684Z,44.92
2022-10-26T09:52:45.346Z,45.46
2022-10-26T09:53:41.936Z,45.90
2022-10-26T09:54:38.566Z,45.64
2022-10-26T09:55:44.254Z,46.80
2022-10-26T09:56:43.771Z,47.24
2022-10-26T09:57:45.020Z,46.52
2022-10-26T09:58:59.549Z,45.91
2022-10-26T09:59:56.468Z,46.45
2022-10-26T10:00:54.121Z,46.15
2022-10-26T10:01:50.795Z,45.49
2022-10-26T10:02:53.618Z,45.67
2022-10-26T10:04:11.394Z,45.67
2022-10-26T10:05:49.918Z,46.42
2022-10-26T10:06:45.659Z,47.75
2022-10-26T10:07:42.246Z,47.61
2022-10-26T10:08:38.789Z,46.82
2022-10-26T10:09:35.403Z,46.29
2022-10-26T10:10:32.917Z,45.84
2022-10-26T10:11:39.279Z,47.25
2022-10-26T10:12:35.910Z,46.23
2022-10-26T10:13:35.780Z,46.44
2022-10-26T10:14:40.621Z,47.15
2022-10-26T10:15:37.304Z,47.31
2022-10-26T10:16:34.012Z,47.73
2022-10-26T10:17:30.808Z,47.73
2022-10-26T10:18:27.463Z,46.69
2022-10-26T10:19:38.301Z,46.31
2022-10-26T10:20:34.879Z,46.76
2022-10-26T10:21:50.127Z,46.54
2022-10-26T10:22:54.806Z,47.24
2022-10-26T10:23:53.291Z,46.34
2022-10-26T10:24:56.634Z,46.58
2022-10-26T10:26:01.840Z,46.74
2022-10-26T10:27:15.163Z,46.92
2022-10-26T10:28:22.477Z,47.53
2022-10-26T10:29:19.095Z,47.40
2022-10-26T10:30:31.422Z,46.75
2022-10-26T10:31:33.022Z,46.91
2022-10-26T10:32:35.475Z,45.28
2022-10-26T10:33:42.712Z,46.05
2022-10-26T10:34:39.268Z,46.12
2022-10-26T10:35:36.111Z,45.34
2022-10-26T10:36:34.059Z,45.63
2022-10-26T10:37:34.988Z,45.55
2022-10-26T10:38:37.928Z,45.78
2022-10-26T10:39:42.662Z,45.02
2022-10-26T10:40:39.269Z,45.08
2022-10-26T10:41:36.787Z,45.31
2022-10-26T10:42:38.641Z,45.55
2022-10-26T10:43:35.349Z,45.29
2022-10-26T10:44:33.986Z,45.96
2022-10-26T10:45:31.307Z,44.41
2022-10-26T10:46:28.598Z,44.16
2022-10-26T10:47:33.619Z,44.34
2022-10-26T10:48:31.726Z,43.50
2022-10-26T10:49:31.064Z,43.75
2022-10-26T10:50:29.257Z,43.71
2022-10-26T10:51:25.949Z,44.20
2022-10-26T10:52:29.076Z,43.23
2022-10-26T10:53:44.327Z,44.74
2022-10-26T10:54:40.982Z,43.90
2022-10-26T10:55:39.457Z,43.97
2022-10-26T10:56:46.839Z,43.66
2022-10-26T10:58:00.768Z,43.92
2022-10-26T10:59:12.394Z,43.53
2022-10-26T11:00:11.954Z,43.33
2022-10-26T11:01:15.705Z,42.63
2022-10-26T11:02:44.753Z,42.46
2022-10-26T11:03:41.287Z,41.94
2022-10-26T11:04:56.248Z,41.35
2022-10-26T11:06:05.787Z,43.35
2022-10-26T11:07:05.378Z,43.38
2022-10-26T11:08:28.424Z,42.82
2022-10-26T11:09:28.832Z,41.98
2022-10-26T11:10:30.635Z,42.18
2022-10-26T11:11:50.864Z,41.69
2022-10-26T11:13:15.079Z,42.32
2022-10-26T11:14:25.195Z,41.50
2022-10-26T11:15:26.268Z,41.73
2022-10-26T11:16:37.570Z,41.15
2022-10-26T11:18:00.328Z,42.25
2022-10-26T11:19:03.363Z,42.02
2022-10-26T11:20:04.139Z,41.96
2022-10-26T11:21:12.750Z,40.88
2022-10-26T11:22:16.940Z,41.98
2022-10-26T11:23:20.994Z,41.70
2022-10-26T11:24:42.110Z,41.29
2022-10-26T11:25:49.990Z,41.20
2022-10-26T11:26:59.168Z,41.13
2022-10-26T11:28:11.923Z,41.06
2022-10-26T11:29:14.687Z,40.96
2022-10-26T11:30:16.407Z,40.69
2022-10-26T11:31:36.084Z,40.75
2022-10-26T11:32:55.841Z,41.35
2022-10-26T11:34:20.082Z,41.48
2022-10-26T11:35:24.720Z,40.70
2022-10-26T11:36:25.278Z,40.50
2022-10-26T11:38:59.938Z,40.59
2022-10-26T11:40:22.566Z,40.79
2022-10-26T11:41:19.123Z,41.07
2022-10-26T11:42:26.040Z,41.07
2022-10-26T11:43:40.137Z,41.81
2022-10-26T11:44:40.241Z,40.22
2022-10-26T11:45:44.228Z,40.27
2022-10-26T11:46:43.276Z,40.27
2022-10-26T11:47:54.967Z,40.92
2022-10-26T11:48:58.954Z,40.58
2022-10-26T11:50:30.813Z,40.18
2022-10-26T11:51:33.102Z,40.66
2022-10-26T11:52:38.277Z,40.35
2022-10-26T11:53:41.068Z,39.83
2022-10-26T11:54:45.742Z,40.44
2022-10-26T11:55:43.475Z,40.24
2022-10-26T11:56:49.581Z,39.96
2022-10-26T11:57:47.165Z,40.70
2022-10-26T11:58:45.965Z,40.49
2022-10-26T11:59:50.516Z,40.68
2022-10-26T12:01:01.736Z,40.25
2022-10-26T12:02:21.363Z,39.03
2022-10-26T12:03:25.116Z,40.46
2022-10-26T12:04:25.571Z,39.59
2022-10-26T12:05:24.500Z,39.09
2022-10-26T12:06:27.528Z,39.81
2022-10-26T12:07:30.055Z,38.88
2022-10-26T12:08:40.756Z,39.15
2022-10-26T12:09:42.203Z,38.16
2022-10-26T12:10:42.696Z,39.14
2022-10-26T12:11:48.583Z,38.50
2022-10-26T12:13:08.203Z,37.54
2022-10-26T12:14:07.779Z,37.49
2022-10-26T12:15:30.842Z,37.35
2022-10-26T12:17:09.044Z,38.11
2022-10-26T12:18:53.841Z,37.87
2022-10-26T12:19:51.573Z,37.99
2022-10-26T12:20:56.308Z,38.47
2022-10-26T12:21:54.215Z,37.96
2022-10-26T12:22:51.241Z,37.36
2022-10-26T12:24:01.456Z,37.25
2022-10-26T12:25:05.870Z,37.68
2022-10-26T12:26:24.009Z,37.28
2022-10-26T12:27:39.175Z,36.39
2022-10-26T12:28:35.743Z,36.89
2022-10-26T12:29:45.109Z,36.79
2022-10-26T12:30:41.664Z,36.57
2022-10-26T12:31:38.271Z,36.96
2022-10-26T12:32:36.490Z,35.78
2022-10-26T12:33:50.231Z,35.62
2022-10-26T12:34:47.161Z,35.68
2022-10-26T12:35:45.037Z,35.19
2022-10-26T12:36:56.461Z,35.15
2022-10-26T12:37:53.361Z,35.28
2022-10-26T12:38:57.833Z,35.53
2022-10-26T12:39:54.421Z,36.03
2022-10-26T12:41:10.707Z,35.58
2022-10-26T12:42:10.049Z,35.50
2022-10-26T12:43:15.475Z,35.19
2022-10-26T12:44:45.704Z,35.52
2022-10-26T12:45:44.000Z,34.44
2022-10-26T12:46:41.083Z,34.09
2022-10-26T12:47:37.588Z,34.37
2022-10-26T12:48:42.200Z,34.31
2022-10-26T12:50:06.851Z,34.93
2022-10-26T12:51:21.906Z,35.90
2022-10-26T12:52:27.675Z,35.22
2022-10-26T12:53:26.122Z,36.16
2022-10-26T12:54:45.442Z,35.72
2022-10-26T12:56:09.905Z,35.97
2022-10-26T12:57:06.423Z,36.76
2022-10-26T12:58:24.167Z,36.73
2022-10-26T12:59:30.037Z,37.02
2022-10-26T13:00:28.106Z,36.99
2022-10-26T13:01:47.919Z,37.24
2022-10-26T13:02:53.386Z,36.57
2022-10-26T13:03:57.758Z,36.72
2022-10-26T13:05:11.560Z,36.25
2022-10-26T13:06:20.810Z,36.26
2022-10-26T13:07:27.787Z,36.17
2022-10-26T13:08:25.086Z,36.24
2022-10-26T13:09:25.186Z,36.52
2022-10-26T13:10:24.610Z,36.78
2022-10-26T13:11:35.172Z,36.69
2022-10-26T13:12:46.337Z,36.80
2022-10-26T13:13:43.432Z,36.90
2022-10-26T13:14:51.734Z,35.84
2022-10-26T13:15:56.158Z,36.58
2022-10-26T13:16:53.346Z,36.56
2022-10-26T13:18:20.615Z,36.43
2022-10-26T13:19:25.708Z,36.68
2022-10-26T13:20:25.391Z,36.55